Time;durP1;ratioP1;P1;durP2;ratioP2;P2;SDS_P1;SDS_P2;PMS_P1;PMS_P2;Temp;Humidity;BMP_temperature;BMP_pressure;BME280_temperature;BME280_humidity;BME280_pressure;Samples;Min_cycle;Max_cycle;Signal;HPM_P1;HPM_P2
2021/08/16 00:01:10;;;;;;;12.23;8.05;;;20.30;99.90;;;;;;4189942;28;20024;-61
2021/08/16 00:03:11;;;;;;;9.48;7.50;;;20.20;99.90;;;;;;4189477;28;20041;-58
2021/08/16 00:05:15;;;;;;;15.90;9.10;;;20.20;99.90;;;;;;4189675;28;20102;-61
2021/08/16 00:07:17;;;;;;;13.18;7.72;;;20.20;99.90;;;;;;4189490;28;20036;-62
2021/08/16 00:09:18;;;;;;;16.10;7.18;;;20.20;99.90;;;;;;4189804;28;20044;-61
2021/08/16 00:11:19;;;;;;;8.50;6.65;;;20.20;99.90;;;;;;4189579;28;20169;-62
2021/08/16 00:13:24;;;;;;;11.52;8.40;;;20.30;99.90;;;;;;4188867;28;20094;-62
2021/08/16 00:15:25;;;;;;;14.48;7.57;;;20.30;99.90;;;;;;4190053;28;20024;-62
2021/08/16 00:17:27;;;;;;;12.10;8.27;;;20.30;99.90;;;;;;4189145;28;20478;-61
2021/08/16 00:19:28;;;;;;;11.15;7.75;;;20.20;99.90;;;;;;4189483;28;20044;-60
2021/08/16 00:21:29;;;;;;;11.80;7.82;;;20.10;99.90;;;;;;4189020;28;20074;-62
2021/08/16 00:23:31;;;;;;;13.52;7.80;;;20.10;99.90;;;;;;4189097;28;20090;-61
2021/08/16 00:25:32;;;;;;;10.35;7.32;;;20.00;99.90;;;;;;4189440;28;20024;-60
2021/08/16 00:27:34;;;;;;;10.48;6.97;;;20.00;99.90;;;;;;4189898;28;20526;-61
2021/08/16 00:29:35;;;;;;;17.85;8.13;;;20.10;99.90;;;;;;4189281;28;20040;-61
2021/08/16 00:31:36;;;;;;;13.52;8.55;;;20.10;99.90;;;;;;4188894;28;20468;-61
2021/08/16 00:33:38;;;;;;;10.35;7.85;;;20.10;99.90;;;;;;4189061;28;20045;-60
2021/08/16 00:35:39;;;;;;;14.45;7.72;;;20.10;99.90;;;;;;4189198;28;20033;-61
2021/08/16 00:37:40;;;;;;;11.00;7.60;;;20.10;99.90;;;;;;4188970;28;20028;-59
2021/08/16 00:39:41;;;;;;;12.18;7.65;;;20.10;99.90;;;;;;4189070;28;20029;-61
2021/08/16 00:41:46;;;;;;;14.27;8.10;;;20.10;99.90;;;;;;4188664;28;20036;-61
2021/08/16 00:43:49;;;;;;;16.77;7.20;;;20.00;99.90;;;;;;4188912;28;20834;-61
2021/08/16 00:45:51;;;;;;;15.80;7.60;;;20.00;99.90;;;;;;4189172;28;20082;-61
2021/08/16 00:47:53;;;;;;;10.60;7.22;;;20.00;99.90;;;;;;4189383;28;20029;-61
2021/08/16 00:49:54;;;;;;;15.27;7.65;;;20.00;99.90;;;;;;4189515;28;20376;-61
2021/08/16 00:51:55;;;;;;;9.43;7.43;;;19.90;99.90;;;;;;4188582;28;20033;-60
2021/08/16 00:53:57;;;;;;;12.63;7.90;;;20.00;99.90;;;;;;4189179;28;20032;-61
2021/08/16 00:55:58;;;;;;;19.08;8.43;;;20.00;99.90;;;;;;4188782;28;20431;-61
2021/08/16 00:58:00;;;;;;;12.65;8.32;;;20.00;99.90;;;;;;4189022;28;20480;-61
2021/08/16 01:00:04;;;;;;;11.70;8.00;;;20.10;99.90;;;;;;4188679;28;20029;-60
2021/08/16 01:02:05;;;;;;;9.25;6.90;;;20.10;99.90;;;;;;4188613;28;20070;-61
2021/08/16 01:04:06;;;;;;;12.55;7.82;;;20.10;99.90;;;;;;4188698;28;20040;-62
2021/08/16 01:06:07;;;;;;;11.18;7.47;;;20.10;99.90;;;;;;4188908;28;20082;-60
2021/08/16 01:08:08;;;;;;;10.80;7.25;;;20.00;99.90;;;;;;4188351;28;20056;-61
2021/08/16 01:10:10;;;;;;;11.35;7.13;;;20.10;99.90;;;;;;4189085;28;20021;-61
2021/08/16 01:12:12;;;;;;;17.85;7.43;;;20.10;99.90;;;;;;4188652;28;20048;-61
2021/08/16 01:14:14;;;;;;;11.75;7.50;;;20.10;99.90;;;;;;4188863;28;20037;-62
2021/08/16 01:16:16;;;;;;;14.98;8.13;;;20.10;99.90;;;;;;4188892;28;20036;-62
2021/08/16 01:18:19;;;;;;;13.68;8.65;;;20.00;99.90;;;;;;4188853;28;20098;-62
2021/08/16 01:20:20;;;;;;;12.77;8.50;;;19.90;99.90;;;;;;4188514;28;20098;-61
2021/08/16 01:22:22;;;;;;;12.32;7.80;;;19.80;99.90;;;;;;4188433;28;20529;-62
2021/08/16 01:24:23;;;;;;;10.30;7.30;;;19.70;99.90;;;;;;4189127;28;20024;-62
2021/08/16 01:26:26;;;;;;;9.15;7.57;;;19.70;99.90;;;;;;4188766;28;20101;-62
2021/08/16 01:28:27;;;;;;;11.02;7.20;;;19.70;99.90;;;;;;4189092;28;20533;-63
2021/08/16 01:30:28;;;;;;;9.35;7.28;;;19.70;99.90;;;;;;4188214;28;20040;-61
2021/08/16 01:32:29;;;;;;;13.27;8.13;;;19.60;99.90;;;;;;4188791;28;20064;-61
2021/08/16 01:34:31;;;;;;;9.32;6.63;;;19.60;99.90;;;;;;4188705;28;21675;-63
2021/08/16 01:36:32;;;;;;;10.60;7.57;;;19.60;99.90;;;;;;4188796;28;20033;-61
2021/08/16 01:38:37;;;;;;;14.52;7.88;;;19.50;99.90;;;;;;4188537;28;20803;-62
2021/08/16 01:40:38;;;;;;;8.27;7.38;;;19.50;99.90;;;;;;4188883;28;20036;-62
2021/08/16 01:42:40;;;;;;;11.02;7.10;;;19.50;99.90;;;;;;4187263;28;20028;-62
2021/08/16 01:44:41;;;;;;;10.82;7.85;;;19.40;99.90;;;;;;4188769;28;20529;-62
2021/08/16 01:46:43;;;;;;;11.27;7.95;;;19.30;99.90;;;;;;4188350;28;20045;-62
2021/08/16 01:48:45;;;;;;;11.60;7.90;;;19.30;99.90;;;;;;4188572;28;20447;-61
2021/08/16 01:50:46;;;;;;;14.38;8.65;;;19.20;99.90;;;;;;4188291;28;20052;-62
2021/08/16 01:52:48;;;;;;;10.23;7.68;;;19.20;99.90;;;;;;4187847;28;20431;-62
2021/08/16 01:54:49;;;;;;;11.23;8.35;;;19.10;99.90;;;;;;4189250;28;20033;-61
2021/08/16 01:56:50;;;;;;;13.48;7.88;;;19.00;99.90;;;;;;4188496;28;20028;-61
2021/08/16 01:58:51;;;;;;;10.90;8.48;;;18.90;99.90;;;;;;4188877;28;20134;-60
2021/08/16 02:00:52;;;;;;;9.20;8.13;;;18.80;99.90;;;;;;4187964;28;20020;-60
2021/08/16 02:02:53;;;;;;;12.85;8.60;;;18.80;99.90;;;;;;4188949;28;20029;-60
2021/08/16 02:04:54;;;;;;;10.43;8.50;;;18.80;99.90;;;;;;4188686;28;20951;-61
2021/08/16 02:06:57;;;;;;;14.23;8.52;;;18.70;99.90;;;;;;4188032;28;20044;-59
2021/08/16 02:08:58;;;;;;;13.77;8.10;;;18.70;99.90;;;;;;4188411;28;20028;-60
2021/08/16 02:10:59;;;;;;;14.85;9.43;;;18.70;99.90;;;;;;4188223;28;20556;-60
2021/08/16 02:13:00;;;;;;;11.18;8.38;;;18.60;99.90;;;;;;4188642;28;20036;-61
2021/08/16 02:15:01;;;;;;;17.15;10.20;;;18.50;99.90;;;;;;4189203;28;20062;-62
2021/08/16 02:17:03;;;;;;;12.57;9.18;;;18.50;99.90;;;;;;4191491;28;20895;-61
2021/08/16 02:19:04;;;;;;;15.75;9.48;;;18.40;99.90;;;;;;4191691;28;20423;-61
2021/08/16 02:21:05;;;;;;;12.30;8.82;;;18.30;99.90;;;;;;4191352;28;20029;-61
2021/08/16 02:23:06;;;;;;;13.80;9.75;;;18.40;99.90;;;;;;4190342;28;20110;-60
2021/08/16 02:25:08;;;;;;;11.35;9.13;;;18.40;99.90;;;;;;4191416;28;20033;-61
2021/08/16 02:27:09;;;;;;;16.15;9.88;;;18.40;99.90;;;;;;4191674;28;20036;-62
2021/08/16 02:29:12;;;;;;;17.70;10.02;;;18.40;99.90;;;;;;4191673;28;20102;-61
2021/08/16 02:31:14;;;;;;;14.25;9.05;;;18.40;99.90;;;;;;4191186;28;20042;-62
2021/08/16 02:33:15;;;;;;;16.02;9.30;;;18.40;99.90;;;;;;4190961;28;20057;-62
2021/08/16 02:35:17;;;;;;;19.52;9.32;;;18.40;99.90;;;;;;4191532;28;20036;-63
2021/08/16 02:37:18;;;;;;;18.45;9.80;;;18.40;99.90;;;;;;4191384;28;20102;-61
2021/08/16 02:39:19;;;;;;;19.27;9.18;;;18.40;99.90;;;;;;4191111;28;20075;-62
2021/08/16 02:41:20;;;;;;;17.48;9.13;;;18.40;99.90;;;;;;4190879;28;20551;-61
2021/08/16 02:43:21;;;;;;;18.42;9.38;;;18.40;99.90;;;;;;4191519;28;20078;-61
2021/08/16 02:45:23;;;;;;;12.98;8.60;;;18.40;99.90;;;;;;4191257;28;20032;-61
2021/08/16 02:47:24;;;;;;;24.73;11.82;;;18.40;99.90;;;;;;4190597;28;20040;-61
2021/08/16 02:49:25;;;;;;;27.52;15.23;;;18.40;99.90;;;;;;4190678;28;20094;-62
2021/08/16 02:51:27;;;;;;;18.67;9.13;;;18.40;99.90;;;;;;4190847;28;20102;-60
2021/08/16 02:53:28;;;;;;;14.13;9.27;;;18.30;99.90;;;;;;4190946;28;20024;-60
2021/08/16 02:55:29;;;;;;;19.70;9.57;;;18.30;99.90;;;;;;4190842;28;20024;-60
2021/08/16 02:57:30;;;;;;;19.55;9.23;;;18.20;99.90;;;;;;4191373;28;20021;-61
2021/08/16 02:59:32;;;;;;;14.50;10.10;;;18.20;99.90;;;;;;4190350;28;20044;-61
2021/08/16 03:01:33;;;;;;;13.43;9.00;;;18.20;99.90;;;;;;4187583;28;20094;-61
2021/08/16 03:03:34;;;;;;;14.13;9.02;;;18.20;99.90;;;;;;4190732;28;20040;-61
2021/08/16 03:05:35;;;;;;;14.70;8.93;;;18.20;99.90;;;;;;4189845;28;20146;-61
2021/08/16 03:07:36;;;;;;;15.07;10.57;;;18.20;99.90;;;;;;4190590;28;20414;-61
2021/08/16 03:09:37;;;;;;;19.60;9.80;;;18.20;99.90;;;;;;4190182;28;20094;-61
2021/08/16 03:11:38;;;;;;;18.13;9.25;;;18.20;99.90;;;;;;4190919;28;20028;-61
2021/08/16 03:13:39;;;;;;;17.52;10.07;;;18.20;99.90;;;;;;4191100;28;20032;-61
2021/08/16 03:15:40;;;;;;;11.63;8.80;;;18.20;99.90;;;;;;4190316;28;20040;-62
2021/08/16 03:17:42;;;;;;;13.77;9.50;;;18.20;99.90;;;;;;4188831;28;20036;-61
2021/08/16 03:19:43;;;;;;;14.05;8.95;;;18.30;99.90;;;;;;4190803;28;20036;-62
2021/08/16 03:21:44;;;;;;;16.23;9.57;;;18.30;99.90;;;;;;4189921;28;20106;-61
2021/08/16 03:23:45;;;;;;;18.33;9.82;;;18.40;99.90;;;;;;4189796;28;20032;-61
2021/08/16 03:25:47;;;;;;;16.42;9.18;;;18.40;99.90;;;;;;4190199;28;20040;-61
2021/08/16 03:27:48;;;;;;;23.50;10.85;;;18.40;99.90;;;;;;4188841;28;20503;-62
2021/08/16 03:29:49;;;;;;;15.40;9.57;;;18.40;99.90;;;;;;4190234;28;20773;-62
2021/08/16 03:31:50;;;;;;;14.75;9.63;;;18.40;99.90;;;;;;4189618;28;20349;-61
2021/08/16 03:33:51;;;;;;;17.15;10.35;;;18.30;99.90;;;;;;4190380;28;20434;-62
2021/08/16 03:35:52;;;;;;;16.83;9.77;;;18.30;99.90;;;;;;4189739;28;20365;-61
2021/08/16 03:37:53;;;;;;;14.38;9.70;;;18.20;99.90;;;;;;4189665;28;20468;-62
2021/08/16 03:39:55;;;;;;;14.70;8.82;;;18.20;99.90;;;;;;4190282;28;20616;-60
2021/08/16 03:41:56;;;;;;;17.88;9.20;;;18.20;99.90;;;;;;4189427;28;20102;-61
2021/08/16 03:43:57;;;;;;;13.65;8.80;;;18.20;99.90;;;;;;4190123;28;20040;-61
2021/08/16 03:45:58;;;;;;;14.57;9.40;;;18.30;99.90;;;;;;4190070;28;20032;-60
2021/08/16 03:47:59;;;;;;;11.52;9.02;;;18.40;99.90;;;;;;4190112;28;20534;-62
2021/08/16 03:50:00;;;;;;;14.13;8.43;;;18.50;99.90;;;;;;4180997;28;20045;-62
2021/08/16 03:52:02;;;;;;;16.77;9.95;;;18.70;99.90;;;;;;4173654;28;20094;-60
2021/08/16 03:54:03;;;;;;;12.30;8.90;;;18.80;99.90;;;;;;4173238;28;20436;-61
2021/08/16 03:56:04;;;;;;;18.45;8.88;;;18.90;99.90;;;;;;4173364;28;20060;-61
2021/08/16 03:58:05;;;;;;;15.13;9.27;;;19.00;99.90;;;;;;4173200;28;20040;-61
2021/08/16 04:00:12;;;;;;;14.30;8.38;;;19.20;99.90;;;;;;4174454;28;20087;-61
2021/08/16 04:02:13;;;;;;;14.05;7.97;;;19.40;99.90;;;;;;4188416;28;20032;-62
2021/08/16 04:04:14;;;;;;;17.92;11.13;;;19.80;99.90;;;;;;4188521;28;20082;-61
2021/08/16 04:06:16;;;;;;;16.40;10.30;;;20.10;99.90;;;;;;4189316;28;20093;-60
2021/08/16 04:08:17;;;;;;;14.70;10.40;;;20.30;99.90;;;;;;4189722;28;20066;-61
2021/08/16 04:10:19;;;;;;;13.80;9.55;;;20.70;99.90;;;;;;4188229;28;20105;-62
2021/08/16 04:12:20;;;;;;;13.23;9.73;;;20.90;99.90;;;;;;4188515;28;20041;-60
2021/08/16 04:14:21;;;;;;;15.38;9.18;;;21.20;99.90;;;;;;4188880;28;20032;-61
2021/08/16 04:16:23;;;;;;;13.68;9.32;;;21.40;99.90;;;;;;4189729;28;20082;-60
2021/08/16 04:18:24;;;;;;;14.88;9.52;;;21.60;99.90;;;;;;4188952;28;20036;-61
2021/08/16 04:20:25;;;;;;;17.77;9.77;;;21.90;99.90;;;;;;4189294;28;20045;-61
2021/08/16 04:22:26;;;;;;;12.23;9.20;;;22.30;99.90;;;;;;4189217;28;20070;-62
2021/08/16 04:24:27;;;;;;;20.45;9.20;;;22.60;99.90;;;;;;4189036;28;20583;-60
2021/08/16 04:26:28;;;;;;;18.85;8.88;;;22.70;99.90;;;;;;4189330;28;20041;-60
2021/08/16 04:28:29;;;;;;;19.35;9.15;;;22.70;99.90;;;;;;4189267;28;20089;-61
2021/08/16 04:30:31;;;;;;;23.33;10.23;;;22.90;99.90;;;;;;4188320;28;20567;-61
2021/08/16 04:32:32;;;;;;;16.42;8.93;;;23.10;99.90;;;;;;4188799;28;20044;-61
2021/08/16 04:34:33;;;;;;;20.58;9.35;;;23.20;99.90;;;;;;4188932;28;20098;-61
2021/08/16 04:36:34;;;;;;;15.25;8.80;;;23.30;99.90;;;;;;4188270;28;20032;-60
2021/08/16 04:38:35;;;;;;;10.15;8.38;;;23.40;99.90;;;;;;4187922;28;20089;-61
2021/08/16 04:40:37;;;;;;;13.95;8.80;;;23.40;99.90;;;;;;4188021;28;20048;-62
2021/08/16 04:42:38;;;;;;;17.83;8.73;;;23.40;99.90;;;;;;4188599;28;20094;-61
2021/08/16 04:44:39;;;;;;;13.35;8.48;;;23.60;99.90;;;;;;4189217;28;20042;-63
2021/08/16 04:46:40;;;;;;;20.48;8.77;;;23.40;99.90;;;;;;4188769;28;20106;-61
2021/08/16 04:48:42;;;;;;;30.60;13.07;;;23.40;99.90;;;;;;4188258;28;20097;-63
2021/08/16 04:50:44;;;;;;;23.17;10.45;;;23.20;99.90;;;;;;4188276;28;20024;-63
2021/08/16 04:52:46;;;;;;;23.40;11.57;;;23.10;99.90;;;;;;4188791;28;20443;-63
2021/08/16 04:54:47;;;;;;;17.20;12.95;;;22.80;99.90;;;;;;4174915;28;20028;-63
2021/08/16 04:56:49;;;;;;;14.45;9.38;;;22.70;99.90;;;;;;4187965;28;20082;-62
2021/08/16 04:58:50;;;;;;;10.13;7.40;;;22.60;99.90;;;;;;4185780;28;20030;-62
2021/08/16 05:00:51;;;;;;;15.50;7.55;;;22.60;99.90;;;;;;4185479;28;20040;-62
2021/08/16 05:02:53;;;;;;;15.27;7.57;;;22.60;99.90;;;;;;4187670;28;20025;-62
2021/08/16 05:04:58;;;;;;;19.95;7.93;;;22.70;99.90;;;;;;4181366;28;20090;-62
2021/08/16 05:06:59;;;;;;;16.90;7.70;;;22.70;99.90;;;;;;4190102;28;20037;-62
2021/08/16 05:09:02;;;;;;;11.10;8.32;;;22.90;99.90;;;;;;4186835;28;20050;-61
2021/08/16 05:11:04;;;;;;;13.80;8.45;;;23.00;99.90;;;;;;4190451;28;20028;-62
2021/08/16 05:13:05;;;;;;;18.60;8.68;;;23.10;99.90;;;;;;4204471;28;20492;-62
2021/08/16 05:15:07;;;;;;;17.80;9.73;;;23.30;99.90;;;;;;4194042;28;20106;-62
2021/08/16 05:17:08;;;;;;;15.27;10.65;;;23.50;99.90;;;;;;4171060;28;20028;-62
2021/08/16 05:19:09;;;;;;;15.13;9.48;;;23.30;99.90;;;;;;4171773;28;20799;-61
2021/08/16 05:21:10;;;;;;;12.25;8.57;;;23.60;99.90;;;;;;4171886;28;20033;-62
2021/08/16 05:23:12;;;;;;;13.63;8.93;;;24.20;99.90;;;;;;4171182;28;20107;-61
2021/08/16 05:25:15;;;;;;;15.57;7.63;;;24.50;99.90;;;;;;4172054;28;20618;-61
2021/08/16 05:27:16;;;;;;;12.43;8.25;;;24.90;99.90;;;;;;4172770;28;20432;-62
2021/08/16 05:29:18;;;;;;;14.80;8.38;;;25.50;99.90;;;;;;4172093;28;20036;-62
2021/08/16 05:31:19;;;;;;;11.85;7.97;;;25.90;99.90;;;;;;4172032;28;20391;-62
2021/08/16 05:33:20;;;;;;;18.10;8.73;;;26.40;99.90;;;;;;4171490;28;20037;-62
2021/08/16 05:35:21;;;;;;;14.25;7.82;;;26.60;99.90;;;;;;4171682;28;20497;-62
2021/08/16 05:37:23;;;;;;;9.77;6.63;;;26.90;99.90;;;;;;4171261;28;20454;-63
2021/08/16 05:39:24;;;;;;;10.07;6.07;;;26.90;99.90;;;;;;4170917;28;20094;-62
2021/08/16 05:41:25;;;;;;;12.25;6.88;;;26.90;99.90;;;;;;4171702;28;20029;-63
2021/08/16 05:43:27;;;;;;;10.90;5.65;;;27.20;99.90;;;;;;4171993;28;20058;-62
2021/08/16 05:45:29;;;;;;;8.68;5.38;;;27.70;99.30;;;;;;4171586;28;20091;-62
2021/08/16 05:47:31;;;;;;;10.10;5.53;;;28.10;98.20;;;;;;4171864;28;20037;-62
2021/08/16 05:49:32;;;;;;;7.82;5.32;;;28.60;97.50;;;;;;4171295;28;20506;-62
2021/08/16 05:51:33;;;;;;;8.57;4.80;;;28.60;96.90;;;;;;4184139;28;20078;-63
2021/08/16 05:53:34;;;;;;;9.43;5.22;;;28.80;96.40;;;;;;4181611;28;20566;-62
2021/08/16 05:55:35;;;;;;;5.60;4.68;;;29.00;95.90;;;;;;4180022;28;20102;-62
2021/08/16 05:57:37;;;;;;;6.78;4.97;;;29.00;95.50;;;;;;4175325;28;20044;-62
2021/08/16 05:59:38;;;;;;;6.18;4.80;;;29.20;95.20;;;;;;4179766;28;20114;-62
2021/08/16 06:01:39;;;;;;;7.05;4.65;;;29.10;94.70;;;;;;4177020;28;20036;-62
2021/08/16 06:03:40;;;;;;;5.88;4.68;;;29.00;94.60;;;;;;4177519;28;20098;-62
2021/08/16 06:05:41;;;;;;;8.02;5.10;;;29.10;94.30;;;;;;4179922;28;20489;-62
2021/08/16 06:07:42;;;;;;;8.07;4.30;;;29.20;94.20;;;;;;4180892;28;20075;-62
2021/08/16 06:09:44;;;;;;;11.38;4.50;;;29.30;94.00;;;;;;4177689;28;20060;-62
2021/08/16 06:11:45;;;;;;;6.72;3.95;;;29.40;93.60;;;;;;4177576;28;20078;-67
2021/08/16 06:13:46;;;;;;;10.43;4.07;;;29.30;93.60;;;;;;4178239;28;20036;-63
2021/08/16 06:15:47;;;;;;;6.18;4.15;;;29.20;93.50;;;;;;4179013;28;20036;-62
2021/08/16 06:17:49;;;;;;;12.80;4.43;;;29.30;93.50;;;;;;4177668;28;20025;-62
2021/08/16 06:19:50;;;;;;;6.32;4.85;;;29.70;93.10;;;;;;4176982;28;20024;-62
2021/08/16 06:21:51;;;;;;;5.55;3.97;;;30.00;92.70;;;;;;4180120;28;20493;-63
2021/08/16 06:23:52;;;;;;;5.45;3.88;;;30.30;92.50;;;;;;4176688;28;20115;-62
2021/08/16 06:25:53;;;;;;;6.20;4.55;;;30.60;92.10;;;;;;4177577;28;20036;-62
2021/08/16 06:27:54;;;;;;;8.50;4.45;;;30.90;91.70;;;;;;4178075;28;20101;-64
2021/08/16 06:29:55;;;;;;;5.57;4.22;;;30.70;91.40;;;;;;4178490;28;20158;-62
2021/08/16 06:31:56;;;;;;;6.28;4.68;;;30.80;91.50;;;;;;4177049;28;20079;-62
2021/08/16 06:33:58;;;;;;;11.25;4.85;;;30.90;91.30;;;;;;4175009;28;20118;-62
2021/08/16 06:35:59;;;;;;;8.05;4.20;;;31.00;91.20;;;;;;4180806;28;20425;-61
2021/08/16 06:38:00;;;;;;;6.15;4.68;;;31.20;91.10;;;;;;4179336;28;20036;-61
2021/08/16 06:40:02;;;;;;;6.07;4.10;;;31.40;90.80;;;;;;4190926;28;20040;-62
2021/08/16 06:42:03;;;;;;;6.05;4.13;;;31.40;90.50;;;;;;4180112;28;20050;-62
2021/08/16 06:44:05;;;;;;;4.95;4.32;;;31.10;90.50;;;;;;4177306;28;20074;-62
2021/08/16 06:46:06;;;;;;;5.35;4.18;;;30.70;90.80;;;;;;4179548;28;20037;-62
2021/08/16 06:48:07;;;;;;;6.15;4.18;;;31.00;90.70;;;;;;4177827;28;20032;-64
2021/08/16 06:50:09;;;;;;;5.18;3.85;;;31.10;90.50;;;;;;4174673;28;20037;-62
2021/08/16 06:52:10;;;;;;;6.97;3.90;;;31.20;90.50;;;;;;4177997;28;20186;-62
2021/08/16 06:54:11;;;;;;;9.30;4.50;;;31.40;90.20;;;;;;4176959;28;20537;-61
2021/08/16 06:56:13;;;;;;;6.70;4.82;;;31.30;90.00;;;;;;4176333;28;20036;-62
2021/08/16 06:58:15;;;;;;;7.57;4.22;;;31.50;90.10;;;;;;4177224;28;20100;-62
2021/08/16 07:00:16;;;;;;;6.18;4.70;;;31.70;89.60;;;;;;4176152;28;20358;-62
2021/08/16 07:02:17;;;;;;;5.80;4.38;;;32.00;88.60;;;;;;4175457;28;20090;-62
2021/08/16 07:04:18;;;;;;;7.82;4.68;;;32.20;88.30;;;;;;4174621;28;20083;-62
2021/08/16 07:06:20;;;;;;;13.95;4.65;;;32.10;87.70;;;;;;4181391;28;20503;-62
2021/08/16 07:08:21;;;;;;;6.53;4.15;;;31.90;88.00;;;;;;4189919;28;20097;-61
2021/08/16 07:10:23;;;;;;;7.07;3.50;;;32.00;88.20;;;;;;4188913;28;20098;-62
2021/08/16 07:12:24;;;;;;;6.43;3.88;;;32.00;87.70;;;;;;4175004;28;20017;-62
2021/08/16 07:14:25;;;;;;;8.05;4.30;;;32.10;87.50;;;;;;4178504;28;20543;-62
2021/08/16 07:16:26;;;;;;;8.23;3.83;;;32.00;86.80;;;;;;4175688;28;20078;-62
2021/08/16 07:18:28;;;;;;;8.70;4.70;;;31.80;87.10;;;;;;4175352;28;20033;-62
2021/08/16 07:20:29;;;;;;;10.20;4.90;;;31.70;87.30;;;;;;4177639;28;20050;-61
2021/08/16 07:22:30;;;;;;;21.67;6.63;;;31.00;88.00;;;;;;4176535;28;20090;-61
2021/08/16 07:24:31;;;;;;;7.93;3.95;;;31.10;88.20;;;;;;4175678;28;20133;-61
2021/08/16 07:26:33;;;;;;;8.32;4.82;;;31.10;87.90;;;;;;4175623;28;20045;-61
2021/08/16 07:28:35;;;;;;;4.72;4.00;;;31.20;87.90;;;;;;4176086;28;20658;-62
2021/08/16 07:30:36;;;;;;;7.00;4.22;;;31.20;88.10;;;;;;4179363;28;20056;-61
2021/08/16 07:32:37;;;;;;;5.90;4.47;;;31.20;88.00;;;;;;4174420;28;20045;-62
2021/08/16 07:34:38;;;;;;;5.43;4.20;;;31.10;87.50;;;;;;4188603;28;20125;-61
2021/08/16 07:36:40;;;;;;;8.82;4.40;;;31.00;87.70;;;;;;4185972;28;20013;-62
2021/08/16 07:38:41;;;;;;;8.52;4.63;;;30.60;87.50;;;;;;4179197;28;20109;-61
2021/08/16 07:40:42;;;;;;;8.10;4.68;;;30.60;87.70;;;;;;4189184;28;20040;-62
2021/08/16 07:42:43;;;;;;;8.40;4.47;;;30.60;87.80;;;;;;4189009;28;20442;-62
2021/08/16 07:44:44;;;;;;;8.65;4.03;;;30.50;87.20;;;;;;4188730;28;20475;-62
2021/08/16 07:46:46;;;;;;;8.25;4.28;;;30.10;87.00;;;;;;4189215;28;20028;-62
2021/08/16 07:48:47;;;;;;;4.82;3.63;;;29.80;87.50;;;;;;4187759;28;20036;-62
2021/08/16 07:50:48;;;;;;;8.90;4.40;;;29.50;88.20;;;;;;4177473;28;20061;-61
2021/08/16 07:52:49;;;;;;;4.68;3.60;;;29.50;88.60;;;;;;4188760;28;20158;-61
2021/08/16 07:54:54;;;;;;;6.78;3.95;;;29.70;88.10;;;;;;4189649;28;20036;-61
2021/08/16 07:56:55;;;;;;;9.05;4.25;;;29.80;87.50;;;;;;4188596;28;20028;-60
2021/08/16 07:58:56;;;;;;;5.30;4.03;;;29.90;87.00;;;;;;4189850;28;20838;-62
2021/08/16 08:00:57;;;;;;;6.88;4.25;;;30.10;86.60;;;;;;4187312;28;20036;-61
2021/08/16 08:02:59;;;;;;;7.65;3.88;;;30.40;86.30;;;;;;4188656;28;20429;-61
2021/08/16 08:05:04;;;;;;;7.93;3.95;;;30.30;86.00;;;;;;4176207;28;20110;-61
2021/08/16 08:07:05;;;;;;;9.70;4.53;;;30.00;85.60;;;;;;4176802;28;20086;-62
2021/08/16 08:09:06;;;;;;;9.15;3.92;;;29.80;86.00;;;;;;4187506;28;20040;-61
2021/08/16 08:11:07;;;;;;;4.95;3.38;;;29.90;86.30;;;;;;4172650;28;20472;-61
2021/08/16 08:13:09;;;;;;;8.90;4.22;;;30.10;86.20;;;;;;4174169;28;20109;-62
2021/08/16 08:15:11;;;;;;;6.32;3.60;;;30.50;85.70;;;;;;4187319;28;20033;-61
2021/08/16 08:17:12;;;;;;;11.60;3.75;;;30.70;85.20;;;;;;4183605;28;20106;-61
2021/08/16 08:19:13;;;;;;;4.43;3.67;;;30.70;85.30;;;;;;4182238;28;20032;-61
2021/08/16 08:21:16;;;;;;;8.02;4.20;;;31.10;84.90;;;;;;4177863;28;20037;-62
2021/08/16 08:23:17;;;;;;;5.35;3.92;;;31.10;84.00;;;;;;4188665;28;20041;-62
2021/08/16 08:25:18;;;;;;;5.78;4.05;;;30.80;84.30;;;;;;4188021;28;20020;-62
2021/08/16 08:27:20;;;;;;;5.50;3.60;;;30.20;84.80;;;;;;4184010;28;20543;-62
2021/08/16 08:29:21;;;;;;;8.40;3.95;;;29.80;85.40;;;;;;4183998;28;20842;-62
2021/08/16 08:31:22;;;;;;;5.15;3.90;;;29.60;86.00;;;;;;4188224;28;20037;-62
2021/08/16 08:33:23;;;;;;;9.48;4.50;;;29.70;85.70;;;;;;4188991;28;20108;-62
2021/08/16 08:35:25;;;;;;;5.53;4.03;;;29.60;85.30;;;;;;4188451;28;20078;-61
2021/08/16 08:37:26;;;;;;;4.50;3.83;;;29.60;85.30;;;;;;4186516;28;20093;-62
2021/08/16 08:39:27;;;;;;;6.55;4.20;;;29.50;85.30;;;;;;4188125;28;20094;-61
2021/08/16 08:41:30;;;;;;;6.15;4.40;;;29.60;85.30;;;;;;4188009;28;20040;-62
2021/08/16 08:43:33;;;;;;;5.97;4.40;;;29.60;85.10;;;;;;4187788;28;20028;-62
2021/08/16 08:45:35;;;;;;;5.55;4.50;;;29.80;85.30;;;;;;4188609;28;20105;-62
2021/08/16 08:47:37;;;;;;;6.53;4.40;;;29.80;85.80;;;;;;4188008;28;20052;-62
2021/08/16 08:49:38;;;;;;;8.63;4.65;;;29.60;86.20;;;;;;4186989;28;20086;-63
2021/08/16 08:51:39;;;;;;;6.45;4.65;;;29.30;86.60;;;;;;4188094;28;20093;-62
2021/08/16 08:53:41;;;;;;;9.70;4.40;;;29.30;87.00;;;;;;4188772;28;20016;-62
2021/08/16 08:55:44;;;;;;;8.23;4.63;;;29.30;87.20;;;;;;4188115;28;20020;-62
2021/08/16 08:57:45;;;;;;;8.50;4.45;;;29.50;87.30;;;;;;4186626;28;20082;-62
2021/08/16 08:59:46;;;;;;;9.57;4.65;;;29.70;87.20;;;;;;4188950;28;20028;-62
2021/08/16 09:01:55;;;;;;;5.85;4.95;;;29.60;86.90;;;;;;4187898;28;20094;-62
2021/08/16 09:03:56;;;;;;;5.50;4.63;;;29.20;86.80;;;;;;4187767;28;20040;-62
2021/08/16 09:06:02;;;;;;;9.80;5.35;;;29.00;87.80;;;;;;4188235;28;20062;-63
2021/08/16 09:08:03;;;;;;;7.53;4.57;;;29.20;87.90;;;;;;4187787;28;20110;-61
2021/08/16 09:10:15;;;;;;;5.68;4.53;;;29.10;87.00;;;;;;4187886;28;20102;-61
2021/08/16 09:12:27;;;;;;;8.43;4.55;;;29.00;86.80;;;;;;4188233;28;20032;-61
2021/08/16 09:14:28;;;;;;;11.57;4.70;;;28.90;88.20;;;;;;4187797;28;20025;-62
2021/08/16 09:16:32;;;;;;;7.10;4.50;;;29.00;88.00;;;;;;4188314;28;20604;-62
2021/08/16 09:18:33;;;;;;;6.47;4.20;;;29.20;87.90;;;;;;4187995;28;20094;-62
2021/08/16 09:20:35;;;;;;;6.78;4.38;;;29.30;87.20;;;;;;4188086;28;20499;-62
2021/08/16 09:22:37;;;;;;;11.70;4.60;;;29.30;86.80;;;;;;4186925;28;20032;-62
2021/08/16 09:24:38;;;;;;;10.57;4.53;;;29.30;87.30;;;;;;4187538;28;20036;-62
2021/08/16 09:26:43;;;;;;;10.52;4.43;;;29.40;87.50;;;;;;4187833;28;20473;-62
2021/08/16 09:28:44;;;;;;;11.20;4.70;;;29.60;87.60;;;;;;4188272;28;20032;-63
2021/08/16 09:30:45;;;;;;;7.70;4.60;;;29.80;87.50;;;;;;4187821;28;20048;-61
2021/08/16 09:32:46;;;;;;;7.95;4.57;;;29.90;87.10;;;;;;4187878;28;20045;-62
2021/08/16 09:34:48;;;;;;;7.05;4.55;;;29.80;86.80;;;;;;4187766;28;20543;-62
2021/08/16 09:36:52;;;;;;;6.30;4.75;;;29.70;87.00;;;;;;4187740;28;20097;-62
2021/08/16 09:38:53;;;;;;;9.50;4.80;;;29.60;86.60;;;;;;4188545;28;20063;-62
2021/08/16 09:40:54;;;;;;;6.60;4.15;;;29.40;86.50;;;;;;4188032;28;20139;-61
2021/08/16 09:42:55;;;;;;;9.60;4.70;;;29.60;86.60;;;;;;4187682;28;20028;-61
2021/08/16 09:44:57;;;;;;;9.57;4.43;;;29.70;86.20;;;;;;4188306;28;20020;-61
2021/08/16 09:47:04;;;;;;;8.10;4.22;;;29.60;85.70;;;;;;4187905;28;20070;-61
2021/08/16 09:49:07;;;;;;;8.57;4.55;;;29.70;85.60;;;;;;4171103;28;20029;-61
2021/08/16 09:51:08;;;;;;;8.93;4.93;;;29.80;85.90;;;;;;4170586;28;20053;-62
2021/08/16 09:53:18;;;;;;;8.00;4.28;;;29.90;86.00;;;;;;4170822;28;20037;-61
2021/08/16 09:55:20;;;;;;;7.35;4.30;;;29.90;85.60;;;;;;4187493;28;20033;-61
2021/08/16 09:57:22;;;;;;;5.90;4.72;;;29.90;85.30;;;;;;4187755;28;20036;-61
2021/08/16 09:59:23;;;;;;;11.68;4.53;;;29.90;85.10;;;;;;4188597;28;20735;-61
2021/08/16 10:01:24;;;;;;;6.38;4.20;;;29.80;84.70;;;;;;4187981;28;20525;-61
2021/08/16 10:03:27;;;;;;;7.22;4.65;;;29.70;84.50;;;;;;4187623;28;20082;-61
2021/08/16 10:05:28;;;;;;;5.75;4.32;;;29.70;84.50;;;;;;4187509;28;20101;-60
2021/08/16 10:07:29;;;;;;;7.30;4.82;;;29.60;84.60;;;;;;4187555;28;20041;-62
2021/08/16 10:09:30;;;;;;;7.60;5.00;;;29.40;85.00;;;;;;4187903;28;20473;-61
2021/08/16 10:11:31;;;;;;;7.07;5.00;;;29.20;85.60;;;;;;4180230;28;20060;-61
2021/08/16 10:13:36;;;;;;;6.57;4.18;;;29.20;85.80;;;;;;4171392;28;20021;-61
2021/08/16 10:15:45;;;;;;;5.75;4.82;;;29.20;86.00;;;;;;4171888;28;20037;-61
2021/08/16 10:17:47;;;;;;;5.97;4.30;;;29.20;86.10;;;;;;4188079;28;20157;-61
2021/08/16 10:19:52;;;;;;;8.00;4.97;;;29.20;86.20;;;;;;4187865;28;20036;-61
2021/08/16 10:22:00;;;;;;;14.15;5.00;;;29.20;86.20;;;;;;4187166;28;20090;-61
2021/08/16 10:24:02;;;;;;;5.05;4.50;;;29.20;86.20;;;;;;4187806;28;20036;-61
2021/08/16 10:26:03;;;;;;;6.88;4.72;;;29.40;86.20;;;;;;4187851;28;20365;-60
2021/08/16 10:28:04;;;;;;;13.90;5.13;;;29.50;86.30;;;;;;4187682;28;20036;-61